Wild Boar Gully, Santa Catalina Island Weather observations

Data are for 10 minute period ending at time listed.
 Day   Time   Solar   Ave.   Ave.  Ave.  Vector    Max.   Stn.    Total
  of    of     Rad.   Air    Rel.  Wind   Wind     Wind   Baro.  Precip.
Year   Day            Temp.  Hum.  Speed  Dir.     Gust   Pres.         
2016   (PST)   W/m2    F      %     mph   deg.      mph    mb.     in.  
------------------------------------------------------------------------
  44   11:20  590.0    58   83.4     3    250.9     6.6    999.0   0.00  
  44   11:30  597.0    58   83.1     4    237.3     6.0    999.0   0.00  
  44   11:40  603.0    59   81.9     3    229.4     4.8    999.0   0.00  
  44   11:50  608.0    61   75.1     4    225.2     5.4    999.0   0.00  
  44   12:00  610.0    60   78.3     3    231.5     4.8    999.0   0.00  
  44   12:10  612.0    62   73.8     4    246.2     4.8    999.0   0.00  
  44   12:20  613.0    62   73.4     4    252.6     6.6    999.0   0.00  
  44   12:30  610.0    58   80.5     4    233.4     7.2    999.0   0.00  
  44   12:40  607.0    59   80.4     3    279.4     4.2    999.0   0.00  
  44   12:50  603.0    63   68.8     3    247.0     4.8    999.0   0.00  
  44   13:00  597.0    63   70.5     3    239.7     4.8    999.0   0.00  
  44   13:10  589.0    63   63.5     3    259.1     4.2    999.0   0.00  
  44   13:20  580.0    63   68.0     4    244.2     7.2    999.0   0.00  
  44   13:30  567.0    59   79.2     4    250.9     6.0    999.0   0.00  
  44   13:40  556.0    62   72.8     3    264.3     5.4    999.0   0.00  
  44   13:50  544.0    65   59.6     3    248.2     4.2    999.0   0.00  
  44   14:00  530.0    66   55.5     3    238.4     4.2    999.0   0.00  
  44   14:10  513.0    63   69.5     5    241.7     9.6    999.0   0.00  
  44   14:20  496.0    65   59.4     6    233.6     8.4    999.0   0.00  
  44   14:30  161.0    67   57.2     6    230.4     7.8    999.0   0.00  
  44   14:40  419.0    68   52.9     7    258.2    12.5    999.0   0.00  
  44   14:50  441.0    72   40.2     8    252.6    12.5    999.0   0.00  
  44   15:00  418.0    72   39.1     8    247.3    13.1    999.0   0.00  
  44   15:10  384.0    72   36.0    12    269.4    16.7    999.0   0.00  
  44   15:20  338.0    74   27.5    10    285.7    17.3    999.0   0.00  
  44   15:30  343.0    76   20.1     9    296.2    16.7    999.0   0.00  
  44   15:40  307.0    76   19.3     7    292.8    13.1    999.0   0.00  
  44   15:50  257.0    75   22.3     8    284.7    12.5    999.0   0.00  
  44   16:00  189.0    73   29.4     4    256.5     7.8    999.0   0.00  
  44   16:10  161.0    72   39.3     3    230.4     6.6    999.0   0.00  
  44   16:20  203.0    68   50.3     3    222.8     7.2    999.0   0.00  
  44   16:30  172.0    68   42.1     6    274.6    13.1    999.0   0.00  
  44   16:40  108.0    71   27.1    10    314.2    16.1    999.0   0.00  
  44   16:50   94.0    70   32.5     8    294.5    17.3    999.0   0.00  
  44   17:00   57.0    65   54.4     4    240.2     7.2    999.0   0.00  
  44   17:10   53.0    64   57.9     5    240.3     9.0    999.0   0.00  
  44   17:20   31.0    60   76.0     3    244.0     6.0    999.0   0.00  
  44   17:30   15.0    58   82.7     2    254.3     4.8    999.0   0.00  
  44   17:40    7.0    59   73.7     4    235.7     7.2    999.0   0.00  
  44   17:50    3.0    58   82.0     2    234.3     5.4    999.0   0.00  
  44   18:00    1.0    57   83.1     2    158.4     3.0    999.0   0.00  
  44   18:10    0.0    57   79.5     1     63.0     1.8    999.0   0.00  
  44   18:20    0.0    57   78.3     1    177.6     3.0    999.0   0.00  
  44   18:30    0.0    58   69.7     2    158.8     3.6    999.0   0.00  
  44   18:40    0.0    59   67.9     2    223.3     4.8    999.0   0.00  
  44   18:50    0.0    59   64.3     2    192.2     3.6    999.0   0.00  
  44   19:00    0.0    63   42.3     3     62.6     4.8    999.0   0.00  
  44   19:10    0.0    64   44.7     3    175.7     4.8    999.0   0.00  
  44   19:20    0.0    61   53.6     2    103.3     3.6    999.0   0.00  
  44   19:30    0.0    63   45.5     5    117.3     7.8    999.0   0.00  
  44   19:40    0.0    65   39.3     4    140.0     7.8    999.0   0.00  
  44   19:50    0.0    63   43.4     2    161.8     5.4    999.0   0.00  
  44   20:00    0.0    61   47.0     3     40.8     4.8    999.0   0.00  
  44   20:10    0.0    63   41.7     1     77.7     2.4    999.0   0.00  
  44   20:20    0.0    64   36.0     4     68.5     8.4    999.0   0.00  
  44   20:30    0.0    66   34.4     6     61.6    12.5    999.0   0.00  
  44   20:40    0.0    65   34.1     2     39.2     5.4    999.0   0.00  
  44   20:50    0.0    64   36.4     3     98.6     7.2    999.0   0.00  
  44   21:00    0.0    62   45.4     3    197.1     6.0    999.0   0.00  
  44   21:10    0.0    61   44.5     2     31.7     4.8    999.0   0.00  
  44   21:20    0.0    62   41.2     2    227.3     6.0    999.0   0.00  
  44   21:30    0.0    59   52.9     2    334.3     5.4    999.0   0.00  
  44   21:40    0.0    63   38.7     5    311.6    11.3    999.0   0.00  
  44   21:50    0.0    68   30.1     8    312.5    12.5    999.0   0.00  
  44   22:00    0.0    68   30.4     5     25.4    14.3    999.0   0.00  
  44   22:10    0.0    65   39.2     6     76.3    11.9    999.0   0.00  
  44   22:20    0.0    65   40.2     4    129.6     8.4    999.0   0.00  
  44   22:30    0.0    64   38.6     4    236.6     6.6    999.0   0.00  
  44   22:40    0.0    66   37.7     4    251.4     7.2    999.0   0.00  
  44   22:50    0.0    67   34.2     7    327.6    13.1    999.0   0.00  
  44   23:00    0.0    67   35.1     5    227.6    13.1    999.0   0.00  
  44   23:10    0.0    66   39.7     3    201.4     7.8    999.0   0.00  
  44   23:20    0.0    64   41.9     3    163.8     6.0    999.0   0.00  
  44   23:30    0.0    63   44.9     6    110.8     9.6    999.0   0.00  
  44   23:40    0.0    62   51.3     2    158.8     6.0    999.0   0.00  
  44   23:50    0.0    62   46.0     5    122.4     7.8    999.0   0.00  
  45    0:00    0.0    62   43.8     4     97.7     6.6    999.0   0.00  
  45    0:10    0.0    62   43.3     3     88.7     6.0    999.0   0.00  
  45    0:20    0.0    59   56.5     4    100.5     6.6    999.0   0.00  
  45    0:30    0.0    62   41.7     5     92.4     6.6    999.0   0.00  
  45    0:40    0.0    61   41.7     4     91.1     6.6    999.0   0.00  
  45    0:50    0.0    62   39.6     6    105.1     7.8    999.0   0.00  
  45    1:00    0.0    61   40.5     4     90.2     6.0    999.0   0.00  
  45    1:10    0.0    61   41.0     4     90.2     5.4    999.0   0.00  
  45    1:20    0.0    61   40.2     4     94.5     4.8    999.0   0.00  
  45    1:30    0.0    61   39.4     2    323.1     3.0    999.0   0.00  
  45    1:40    0.0    60   42.0     2    232.6     3.0    999.0   0.00  
  45    1:50    0.0    61   40.9     3    121.0     6.0    999.0   0.00  
  45    2:00    0.0    58   48.8     3    230.0     5.4    999.0   0.00  
  45    2:10    0.0    56   50.7     1     96.4     1.8    999.0   0.00  
  45    2:20    0.0    56   55.4     2    211.2     4.2    999.0   0.00  
  45    2:30    0.0    52   80.6     3     73.0     5.4    999.0   0.00  
  45    2:40    0.0    50   88.0     3    174.1     7.8    999.0   0.00  
  45    2:50    0.0    50   90.5     2     59.6     4.8    999.0   0.00  
  45    3:00    0.0    55   71.6     7     21.5    13.7    999.0   0.00  
  45    3:10    0.0    57   64.1     6     10.5    12.5    999.0   0.00  
  45    3:20    0.0    56   74.6     4    240.5     7.8    999.0   0.00  
  45    3:30    0.0    62   47.0     6      6.6    10.8    999.0   0.00  
  45    3:40    0.0    58   58.0     6     43.8    11.9    999.0   0.00  
  45    3:50    0.0    67   29.4    13     26.7    17.3    999.0   0.00  
  45    4:00    0.0    68   27.0    12     15.5    16.7    999.0   0.00  
  45    4:10    0.0    64   44.2     6     37.9    10.8    999.0   0.00  
  45    4:20    0.0    54   80.2     4    103.5    10.2    999.0   0.00  
  45    4:30    0.0    55   75.3     5    125.0    10.2    999.0   0.00  
  45    4:40    0.0    52   88.3     4    108.1     8.4    999.0   0.00  
  45    4:50    0.0    51   88.9     3     85.3     6.0    999.0   0.00  
  45    5:00    0.0    52   82.0     3    302.6     4.8    999.0   0.00  
  45    5:10    0.0    51   87.1     3    129.9     4.2    999.0   0.00  
  45    5:20    0.0    50   90.8     2     66.9     3.6    999.0   0.00  
  45    5:30    0.0    51   91.3     4    250.2     6.6    999.0   0.00  
  45    5:40    0.0    50   92.9     4    276.1     9.6    999.0   0.00  
  45    5:50    0.0    50   93.9     4    249.8     8.4    999.0   0.00  
  45    6:00    0.0    50   94.3     4    135.1     7.2    999.0   0.00  
  45    6:10    0.0    51   90.9     5    178.1    12.5    999.0   0.00  
  45    6:20    0.0    52   87.3     4     63.0     6.6    999.0   0.00  
  45    6:30    0.0    53   80.6     4    242.6     7.8    999.0   0.00  
  45    6:40    1.0    52   85.7     2    281.1     4.8    999.0   0.00  
  45    6:50    5.0    53   77.1     2     72.3     3.6    999.0   0.00  
  45    7:00    9.0    62   39.2     2     95.8     4.8    999.0   0.00  
  45    7:10   34.0    64   33.1     3    284.8     4.8    999.0   0.00  
  45    7:20   64.0    65   30.7     2     55.9     4.2    999.0   0.00  
  45    7:30   95.0    67   28.3     4    349.1     6.6    999.0   0.00  
  45    7:40  121.0    68   27.5     4    214.5     4.8    999.0   0.00  
  45    7:50  148.0    68   29.5     2    249.5     3.6    999.0   0.00  
  45    8:00  176.0    68   30.9     2    230.8     4.2    999.0   0.00  
  45    8:10  204.0    66   41.9     2    209.4     4.2    999.0   0.00  
  45    8:20  231.0    65   43.1     4    232.4     7.2    999.0   0.00  
  45    8:30  246.0    55   83.0     4     43.7     7.2    999.0   0.00  
  45    8:40  285.0    56   81.0     4    211.8     7.2    999.0   0.00  
  45    8:50  314.0    59   73.6     2    128.8     4.2    999.0   0.00  
  45    9:00  340.0    62   61.6     3    189.4     5.4    999.0   0.00  
  45    9:10  366.0    64   58.5     1    231.0     4.8    999.0   0.00  
  45    9:20  390.0    66   55.6     2    221.2     5.4    999.0   0.00  
  45    9:30  407.0    58   80.3     4    259.9     7.2    999.0   0.00  
  45    9:40  434.0    63   60.3     4    198.8     7.8    999.0   0.00  
  45    9:50  450.0    60   73.6     3    175.7     5.4    999.0   0.00  
  45   10:00  472.0    61   70.5     4    174.4     7.8    999.0   0.00  
  45   10:10  492.0    68   45.6     3    225.3     7.2    999.0   0.00  
  45   10:20  507.0    62   68.5     5    209.9     7.2    999.0   0.00  
  45   10:30  526.0    64   60.2     3    289.1     6.6    999.0   0.00  
  45   10:40  540.0    67   55.3     3    140.3     4.8    999.0   0.00  
  45   10:50  553.0    73   33.5     5    132.2     9.6    999.0   0.00  
  45   11:00  563.0    72   40.5     6    240.5    11.3    999.0   0.00  
  45   11:10  570.0    59   78.8     5    246.9     9.6    999.0   0.00  

Return to Wild Boar Gully graphs page.


Western Regional Climate Center,wrcc@dri.edu